sensor_id;sensor_type;location;lat;lon;timestamp;P1;durP1;ratioP1;P2;durP2;ratioP2
43891;SDS011;29555;45.350;5.578;2022-10-17T00:01:40;3.78;;;3.20;;
43891;SDS011;29555;45.350;5.578;2022-10-17T00:04:06;8.45;;;3.53;;
43891;SDS011;29555;45.350;5.578;2022-10-17T00:06:31;6.28;;;3.20;;
43891;SDS011;29555;45.350;5.578;2022-10-17T00:08:57;3.03;;;2.70;;
43891;SDS011;29555;45.350;5.578;2022-10-17T00:11:22;5.20;;;3.90;;
43891;SDS011;29555;45.350;5.578;2022-10-17T00:13:49;16.23;;;3.83;;
43891;SDS011;29555;45.350;5.578;2022-10-17T00:16:26;6.10;;;4.18;;
43891;SDS011;29555;45.350;5.578;2022-10-17T00:18:56;8.10;;;3.72;;
43891;SDS011;29555;45.350;5.578;2022-10-17T00:21:22;4.93;;;2.95;;
43891;SDS011;29555;45.350;5.578;2022-10-17T00:23:48;9.52;;;3.42;;
43891;SDS011;29555;45.350;5.578;2022-10-17T00:26:14;4.18;;;3.30;;
43891;SDS011;29555;45.350;5.578;2022-10-17T00:28:40;5.40;;;3.25;;
43891;SDS011;29555;45.350;5.578;2022-10-17T00:31:06;5.35;;;3.45;;
43891;SDS011;29555;45.350;5.578;2022-10-17T00:33:32;6.07;;;3.78;;
43891;SDS011;29555;45.350;5.578;2022-10-17T00:36:10;8.88;;;4.28;;
43891;SDS011;29555;45.350;5.578;2022-10-17T00:38:37;5.38;;;4.05;;
43891;SDS011;29555;45.350;5.578;2022-10-17T00:41:03;4.25;;;3.38;;
43891;SDS011;29555;45.350;5.578;2022-10-17T00:43:47;4.72;;;4.32;;
43891;SDS011;29555;45.350;5.578;2022-10-17T00:46:17;6.07;;;3.47;;
43891;SDS011;29555;45.350;5.578;2022-10-17T00:48:43;9.82;;;4.85;;
43891;SDS011;29555;45.350;5.578;2022-10-17T00:51:09;5.80;;;4.47;;
43891;SDS011;29555;45.350;5.578;2022-10-17T00:53:35;8.95;;;4.30;;
43891;SDS011;29555;45.350;5.578;2022-10-17T00:56:01;5.38;;;3.53;;
43891;SDS011;29555;45.350;5.578;2022-10-17T00:58:27;4.80;;;3.58;;
43891;SDS011;29555;45.350;5.578;2022-10-17T01:00:52;6.00;;;4.50;;
43891;SDS011;29555;45.350;5.578;2022-10-17T01:03:17;3.05;;;2.78;;
43891;SDS011;29555;45.350;5.578;2022-10-17T01:05:43;4.45;;;3.22;;
43891;SDS011;29555;45.350;5.578;2022-10-17T01:08:08;6.32;;;3.65;;
43891;SDS011;29555;45.350;5.578;2022-10-17T01:11:04;3.85;;;3.05;;
43891;SDS011;29555;45.350;5.578;2022-10-17T01:13:43;7.28;;;4.32;;
43891;SDS011;29555;45.350;5.578;2022-10-17T01:16:16;5.68;;;3.88;;
43891;SDS011;29555;45.350;5.578;2022-10-17T01:21:20;8.32;;;4.28;;
43891;SDS011;29555;45.350;5.578;2022-10-17T01:32:47;5.68;;;3.70;;
43891;SDS011;29555;45.350;5.578;2022-10-17T01:35:26;11.48;;;3.70;;
43891;SDS011;29555;45.350;5.578;2022-10-17T01:46:35;7.45;;;3.67;;
43891;SDS011;29555;45.350;5.578;2022-10-17T01:49:03;6.50;;;4.30;;
43891;SDS011;29555;45.350;5.578;2022-10-17T01:51:37;7.45;;;4.32;;
43891;SDS011;29555;45.350;5.578;2022-10-17T01:54:13;7.38;;;4.55;;
43891;SDS011;29555;45.350;5.578;2022-10-17T01:56:40;6.93;;;4.63;;
43891;SDS011;29555;45.350;5.578;2022-10-17T01:59:10;8.95;;;4.30;;
43891;SDS011;29555;45.350;5.578;2022-10-17T02:01:37;7.40;;;4.13;;
43891;SDS011;29555;45.350;5.578;2022-10-17T02:04:06;5.20;;;3.55;;
43891;SDS011;29555;45.350;5.578;2022-10-17T02:06:34;8.25;;;4.32;;
43891;SDS011;29555;45.350;5.578;2022-10-17T02:09:19;5.63;;;4.78;;
43891;SDS011;29555;45.350;5.578;2022-10-17T02:17:40;8.85;;;5.95;;
43891;SDS011;29555;45.350;5.578;2022-10-17T02:20:27;3.88;;;3.47;;
43891;SDS011;29555;45.350;5.578;2022-10-17T02:27:52;5.03;;;3.72;;
43891;SDS011;29555;45.350;5.578;2022-10-17T02:35:47;13.35;;;4.53;;
43891;SDS011;29555;45.350;5.578;2022-10-17T02:38:15;3.40;;;3.08;;
43891;SDS011;29555;45.350;5.578;2022-10-17T02:40:42;3.88;;;2.78;;
43891;SDS011;29555;45.350;5.578;2022-10-17T02:43:09;4.13;;;2.95;;
43891;SDS011;29555;45.350;5.578;2022-10-17T02:45:35;4.43;;;4.03;;
43891;SDS011;29555;45.350;5.578;2022-10-17T02:48:02;4.22;;;3.50;;
43891;SDS011;29555;45.350;5.578;2022-10-17T02:50:32;7.20;;;4.22;;
43891;SDS011;29555;45.350;5.578;2022-10-17T02:53:08;4.70;;;4.20;;
43891;SDS011;29555;45.350;5.578;2022-10-17T02:55:44;8.27;;;4.25;;
43891;SDS011;29555;45.350;5.578;2022-10-17T02:58:19;6.75;;;4.25;;
43891;SDS011;29555;45.350;5.578;2022-10-17T03:00:47;10.90;;;4.32;;
43891;SDS011;29555;45.350;5.578;2022-10-17T03:03:21;4.30;;;3.42;;
43891;SDS011;29555;45.350;5.578;2022-10-17T03:05:49;5.43;;;4.03;;
43891;SDS011;29555;45.350;5.578;2022-10-17T03:08:16;4.13;;;3.33;;
43891;SDS011;29555;45.350;5.578;2022-10-17T03:10:41;5.20;;;3.92;;
43891;SDS011;29555;45.350;5.578;2022-10-17T03:13:07;5.38;;;3.42;;
43891;SDS011;29555;45.350;5.578;2022-10-17T03:15:32;5.53;;;4.78;;
43891;SDS011;29555;45.350;5.578;2022-10-17T03:17:57;4.20;;;3.85;;
43891;SDS011;29555;45.350;5.578;2022-10-17T03:20:23;6.28;;;2.97;;
43891;SDS011;29555;45.350;5.578;2022-10-17T03:22:48;5.93;;;3.38;;
43891;SDS011;29555;45.350;5.578;2022-10-17T03:25:13;6.47;;;3.58;;
43891;SDS011;29555;45.350;5.578;2022-10-17T03:27:39;13.07;;;3.90;;
43891;SDS011;29555;45.350;5.578;2022-10-17T03:30:04;7.15;;;4.63;;
43891;SDS011;29555;45.350;5.578;2022-10-17T03:32:31;6.28;;;3.83;;
43891;SDS011;29555;45.350;5.578;2022-10-17T03:34:57;7.18;;;4.85;;
43891;SDS011;29555;45.350;5.578;2022-10-17T03:37:23;10.13;;;3.88;;
43891;SDS011;29555;45.350;5.578;2022-10-17T03:39:48;5.45;;;4.63;;
43891;SDS011;29555;45.350;5.578;2022-10-17T03:42:13;6.35;;;3.95;;
43891;SDS011;29555;45.350;5.578;2022-10-17T03:44:39;8.57;;;4.60;;
43891;SDS011;29555;45.350;5.578;2022-10-17T03:47:04;5.00;;;4.30;;
43891;SDS011;29555;45.350;5.578;2022-10-17T03:49:29;5.07;;;4.03;;
43891;SDS011;29555;45.350;5.578;2022-10-17T03:51:55;6.85;;;5.03;;
43891;SDS011;29555;45.350;5.578;2022-10-17T03:54:20;8.93;;;3.58;;
43891;SDS011;29555;45.350;5.578;2022-10-17T03:56:45;9.05;;;4.55;;
43891;SDS011;29555;45.350;5.578;2022-10-17T03:59:14;6.28;;;3.60;;
43891;SDS011;29555;45.350;5.578;2022-10-17T04:01:40;6.47;;;4.95;;
43891;SDS011;29555;45.350;5.578;2022-10-17T04:04:06;7.13;;;3.45;;
43891;SDS011;29555;45.350;5.578;2022-10-17T04:06:32;4.65;;;3.75;;
43891;SDS011;29555;45.350;5.578;2022-10-17T04:08:57;3.75;;;3.25;;
43891;SDS011;29555;45.350;5.578;2022-10-17T04:11:23;4.53;;;3.72;;
43891;SDS011;29555;45.350;5.578;2022-10-17T04:13:53;4.53;;;3.72;;
43891;SDS011;29555;45.350;5.578;2022-10-17T04:16:19;3.72;;;3.20;;
43891;SDS011;29555;45.350;5.578;2022-10-17T04:18:45;3.95;;;3.47;;
43891;SDS011;29555;45.350;5.578;2022-10-17T04:21:11;6.00;;;3.60;;
43891;SDS011;29555;45.350;5.578;2022-10-17T04:23:37;4.60;;;4.07;;
43891;SDS011;29555;45.350;5.578;2022-10-17T04:26:03;5.60;;;4.47;;
43891;SDS011;29555;45.350;5.578;2022-10-17T04:28:29;11.77;;;4.10;;
43891;SDS011;29555;45.350;5.578;2022-10-17T04:33:25;4.00;;;3.60;;
43891;SDS011;29555;45.350;5.578;2022-10-17T04:36:04;4.50;;;3.90;;
43891;SDS011;29555;45.350;5.578;2022-10-17T04:38:36;7.72;;;5.13;;
43891;SDS011;29555;45.350;5.578;2022-10-17T04:41:03;8.32;;;4.65;;
43891;SDS011;29555;45.350;5.578;2022-10-17T04:43:33;5.78;;;4.35;;
43891;SDS011;29555;45.350;5.578;2022-10-17T04:46:00;4.28;;;3.85;;
43891;SDS011;29555;45.350;5.578;2022-10-17T04:48:27;6.30;;;4.22;;
43891;SDS011;29555;45.350;5.578;2022-10-17T04:50:57;5.05;;;4.18;;
43891;SDS011;29555;45.350;5.578;2022-10-17T04:53:24;8.73;;;4.32;;
43891;SDS011;29555;45.350;5.578;2022-10-17T04:55:50;5.05;;;4.10;;
43891;SDS011;29555;45.350;5.578;2022-10-17T04:58:16;7.82;;;4.35;;
43891;SDS011;29555;45.350;5.578;2022-10-17T05:00:42;4.93;;;3.50;;
43891;SDS011;29555;45.350;5.578;2022-10-17T05:03:07;5.07;;;4.07;;
43891;SDS011;29555;45.350;5.578;2022-10-17T05:05:35;7.47;;;3.97;;
43891;SDS011;29555;45.350;5.578;2022-10-17T05:08:02;10.55;;;4.50;;
43891;SDS011;29555;45.350;5.578;2022-10-17T05:10:28;6.25;;;4.28;;
43891;SDS011;29555;45.350;5.578;2022-10-17T05:12:53;3.65;;;3.35;;
43891;SDS011;29555;45.350;5.578;2022-10-17T05:15:19;8.70;;;4.78;;
43891;SDS011;29555;45.350;5.578;2022-10-17T05:17:44;5.70;;;4.18;;
43891;SDS011;29555;45.350;5.578;2022-10-17T05:20:10;9.88;;;5.18;;
43891;SDS011;29555;45.350;5.578;2022-10-17T05:22:35;6.40;;;4.05;;
43891;SDS011;29555;45.350;5.578;2022-10-17T05:25:01;7.57;;;4.07;;
43891;SDS011;29555;45.350;5.578;2022-10-17T05:27:26;5.80;;;4.45;;
43891;SDS011;29555;45.350;5.578;2022-10-17T05:29:52;8.65;;;4.55;;
43891;SDS011;29555;45.350;5.578;2022-10-17T05:32:17;7.95;;;5.15;;
43891;SDS011;29555;45.350;5.578;2022-10-17T05:34:42;6.95;;;5.18;;
43891;SDS011;29555;45.350;5.578;2022-10-17T05:37:08;4.97;;;4.40;;
43891;SDS011;29555;45.350;5.578;2022-10-17T05:39:33;7.93;;;4.68;;
43891;SDS011;29555;45.350;5.578;2022-10-17T05:41:58;6.43;;;5.82;;
43891;SDS011;29555;45.350;5.578;2022-10-17T05:44:24;14.82;;;5.43;;
43891;SDS011;29555;45.350;5.578;2022-10-17T05:46:49;12.35;;;5.38;;
43891;SDS011;29555;45.350;5.578;2022-10-17T05:49:15;11.63;;;5.30;;
43891;SDS011;29555;45.350;5.578;2022-10-17T05:51:40;7.53;;;6.03;;
43891;SDS011;29555;45.350;5.578;2022-10-17T05:54:06;7.50;;;5.22;;
43891;SDS011;29555;45.350;5.578;2022-10-17T05:56:31;5.13;;;4.63;;
43891;SDS011;29555;45.350;5.578;2022-10-17T05:58:58;6.47;;;4.97;;
43891;SDS011;29555;45.350;5.578;2022-10-17T06:01:23;6.88;;;4.82;;
43891;SDS011;29555;45.350;5.578;2022-10-17T06:03:49;5.30;;;4.82;;
43891;SDS011;29555;45.350;5.578;2022-10-17T06:06:15;9.50;;;6.22;;
43891;SDS011;29555;45.350;5.578;2022-10-17T06:08:41;7.07;;;5.10;;
43891;SDS011;29555;45.350;5.578;2022-10-17T06:11:07;8.52;;;5.18;;
43891;SDS011;29555;45.350;5.578;2022-10-17T06:13:34;5.97;;;5.25;;
43891;SDS011;29555;45.350;5.578;2022-10-17T06:16:01;12.05;;;4.82;;
43891;SDS011;29555;45.350;5.578;2022-10-17T06:18:27;7.03;;;4.93;;
43891;SDS011;29555;45.350;5.578;2022-10-17T06:20:53;7.20;;;4.40;;
43891;SDS011;29555;45.350;5.578;2022-10-17T06:23:18;8.52;;;5.60;;
43891;SDS011;29555;45.350;5.578;2022-10-17T06:25:44;5.65;;;4.88;;
43891;SDS011;29555;45.350;5.578;2022-10-17T06:28:11;7.70;;;4.75;;
43891;SDS011;29555;45.350;5.578;2022-10-17T06:30:37;10.32;;;6.15;;
43891;SDS011;29555;45.350;5.578;2022-10-17T06:33:04;11.10;;;5.55;;
43891;SDS011;29555;45.350;5.578;2022-10-17T06:35:29;7.80;;;5.32;;
43891;SDS011;29555;45.350;5.578;2022-10-17T06:37:55;6.78;;;5.43;;
43891;SDS011;29555;45.350;5.578;2022-10-17T06:40:21;6.28;;;3.97;;
43891;SDS011;29555;45.350;5.578;2022-10-17T06:42:47;6.90;;;5.07;;
43891;SDS011;29555;45.350;5.578;2022-10-17T06:45:13;7.13;;;5.15;;
43891;SDS011;29555;45.350;5.578;2022-10-17T06:47:38;12.65;;;4.93;;
43891;SDS011;29555;45.350;5.578;2022-10-17T06:50:04;7.45;;;5.07;;
43891;SDS011;29555;45.350;5.578;2022-10-17T06:52:31;6.38;;;5.45;;
43891;SDS011;29555;45.350;5.578;2022-10-17T06:54:57;8.25;;;5.80;;
43891;SDS011;29555;45.350;5.578;2022-10-17T06:57:22;8.25;;;5.35;;
43891;SDS011;29555;45.350;5.578;2022-10-17T06:59:48;12.65;;;5.90;;
43891;SDS011;29555;45.350;5.578;2022-10-17T07:02:13;6.85;;;4.53;;
43891;SDS011;29555;45.350;5.578;2022-10-17T07:04:39;8.20;;;5.68;;
43891;SDS011;29555;45.350;5.578;2022-10-17T07:07:05;10.05;;;5.25;;
43891;SDS011;29555;45.350;5.578;2022-10-17T07:09:30;5.97;;;4.60;;
43891;SDS011;29555;45.350;5.578;2022-10-17T07:11:57;5.35;;;4.70;;
43891;SDS011;29555;45.350;5.578;2022-10-17T07:14:22;9.15;;;4.93;;
43891;SDS011;29555;45.350;5.578;2022-10-17T07:16:50;3.97;;;3.63;;
43891;SDS011;29555;45.350;5.578;2022-10-17T07:19:15;5.70;;;4.45;;
43891;SDS011;29555;45.350;5.578;2022-10-17T07:21:40;10.32;;;6.25;;
43891;SDS011;29555;45.350;5.578;2022-10-17T07:24:06;10.65;;;6.15;;
43891;SDS011;29555;45.350;5.578;2022-10-17T07:26:31;5.20;;;4.70;;
43891;SDS011;29555;45.350;5.578;2022-10-17T07:28:57;8.52;;;5.53;;
43891;SDS011;29555;45.350;5.578;2022-10-17T07:31:23;5.18;;;3.22;;
43891;SDS011;29555;45.350;5.578;2022-10-17T07:33:48;5.45;;;3.75;;
43891;SDS011;29555;45.350;5.578;2022-10-17T07:36:14;4.40;;;3.17;;
43891;SDS011;29555;45.350;5.578;2022-10-17T07:38:40;7.55;;;4.05;;
43891;SDS011;29555;45.350;5.578;2022-10-17T07:41:07;4.57;;;4.18;;
43891;SDS011;29555;45.350;5.578;2022-10-17T07:43:33;3.15;;;2.78;;
43891;SDS011;29555;45.350;5.578;2022-10-17T07:46:00;10.40;;;4.10;;
43891;SDS011;29555;45.350;5.578;2022-10-17T07:48:27;8.60;;;3.72;;
43891;SDS011;29555;45.350;5.578;2022-10-17T07:50:53;4.15;;;2.92;;
43891;SDS011;29555;45.350;5.578;2022-10-17T07:53:18;9.20;;;4.93;;
43891;SDS011;29555;45.350;5.578;2022-10-17T07:55:44;8.02;;;4.25;;
43891;SDS011;29555;45.350;5.578;2022-10-17T07:58:11;12.38;;;5.00;;
43891;SDS011;29555;45.350;5.578;2022-10-17T08:00:36;3.42;;;2.92;;
43891;SDS011;29555;45.350;5.578;2022-10-17T08:03:02;10.88;;;3.78;;
43891;SDS011;29555;45.350;5.578;2022-10-17T08:05:28;9.80;;;4.40;;
43891;SDS011;29555;45.350;5.578;2022-10-17T08:07:54;11.40;;;5.10;;
43891;SDS011;29555;45.350;5.578;2022-10-17T08:10:19;4.93;;;3.72;;
43891;SDS011;29555;45.350;5.578;2022-10-17T08:12:45;5.22;;;3.83;;
43891;SDS011;29555;45.350;5.578;2022-10-17T08:15:11;4.47;;;3.85;;
43891;SDS011;29555;45.350;5.578;2022-10-17T08:17:37;4.50;;;3.65;;
43891;SDS011;29555;45.350;5.578;2022-10-17T08:20:03;4.47;;;3.53;;
43891;SDS011;29555;45.350;5.578;2022-10-17T08:22:29;7.25;;;3.83;;
43891;SDS011;29555;45.350;5.578;2022-10-17T08:24:56;9.68;;;3.67;;
43891;SDS011;29555;45.350;5.578;2022-10-17T08:27:21;4.05;;;3.15;;
43891;SDS011;29555;45.350;5.578;2022-10-17T08:29:51;5.13;;;4.00;;
43891;SDS011;29555;45.350;5.578;2022-10-17T08:32:18;5.75;;;3.88;;
43891;SDS011;29555;45.350;5.578;2022-10-17T08:34:49;4.97;;;3.33;;
43891;SDS011;29555;45.350;5.578;2022-10-17T08:37:14;5.45;;;3.22;;
43891;SDS011;29555;45.350;5.578;2022-10-17T08:39:40;4.38;;;2.53;;
43891;SDS011;29555;45.350;5.578;2022-10-17T08:47:44;11.13;;;4.80;;
43891;SDS011;29555;45.350;5.578;2022-10-17T08:50:18;8.93;;;3.38;;
43891;SDS011;29555;45.350;5.578;2022-10-17T08:52:57;5.32;;;3.72;;
43891;SDS011;29555;45.350;5.578;2022-10-17T08:57:59;3.75;;;3.10;;
43891;SDS011;29555;45.350;5.578;2022-10-17T09:00:25;5.68;;;4.28;;
43891;SDS011;29555;45.350;5.578;2022-10-17T09:08:11;7.97;;;4.07;;
43891;SDS011;29555;45.350;5.578;2022-10-17T09:10:51;3.40;;;2.63;;
43891;SDS011;29555;45.350;5.578;2022-10-17T09:13:31;4.43;;;3.17;;
43891;SDS011;29555;45.350;5.578;2022-10-17T09:18:49;4.15;;;3.78;;
43891;SDS011;29555;45.350;5.578;2022-10-17T09:21:25;9.35;;;2.90;;
43891;SDS011;29555;45.350;5.578;2022-10-17T09:23:59;5.63;;;2.75;;
43891;SDS011;29555;45.350;5.578;2022-10-17T09:26:27;2.03;;;1.83;;
43891;SDS011;29555;45.350;5.578;2022-10-17T09:28:53;2.63;;;2.40;;
43891;SDS011;29555;45.350;5.578;2022-10-17T09:31:29;5.43;;;2.60;;
43891;SDS011;29555;45.350;5.578;2022-10-17T09:34:02;2.50;;;2.33;;
43891;SDS011;29555;45.350;5.578;2022-10-17T09:36:28;5.38;;;3.25;;
43891;SDS011;29555;45.350;5.578;2022-10-17T09:38:59;7.25;;;3.40;;
43891;SDS011;29555;45.350;5.578;2022-10-17T09:41:29;2.75;;;2.50;;
43891;SDS011;29555;45.350;5.578;2022-10-17T09:44:07;4.32;;;2.97;;
43891;SDS011;29555;45.350;5.578;2022-10-17T09:49:33;3.75;;;2.03;;
43891;SDS011;29555;45.350;5.578;2022-10-17T09:52:05;4.45;;;2.63;;
43891;SDS011;29555;45.350;5.578;2022-10-17T09:54:40;3.22;;;2.53;;
43891;SDS011;29555;45.350;5.578;2022-10-17T09:57:09;4.55;;;3.22;;
43891;SDS011;29555;45.350;5.578;2022-10-17T09:59:36;6.10;;;2.83;;
43891;SDS011;29555;45.350;5.578;2022-10-17T10:04:33;2.75;;;2.55;;
43891;SDS011;29555;45.350;5.578;2022-10-17T10:07:04;5.43;;;2.67;;
43891;SDS011;29555;45.350;5.578;2022-10-17T10:09:36;3.97;;;2.47;;
43891;SDS011;29555;45.350;5.578;2022-10-17T10:12:04;2.55;;;2.17;;
43891;SDS011;29555;45.350;5.578;2022-10-17T10:14:39;4.50;;;2.72;;
43891;SDS011;29555;45.350;5.578;2022-10-17T10:17:05;4.32;;;2.95;;
43891;SDS011;29555;45.350;5.578;2022-10-17T10:19:52;7.25;;;2.17;;
43891;SDS011;29555;45.350;5.578;2022-10-17T10:22:18;2.33;;;1.65;;
43891;SDS011;29555;45.350;5.578;2022-10-17T10:24:56;2.42;;;2.15;;
43891;SDS011;29555;45.350;5.578;2022-10-17T10:27:31;2.15;;;1.95;;
43891;SDS011;29555;45.350;5.578;2022-10-17T10:29:57;2.72;;;2.03;;
43891;SDS011;29555;45.350;5.578;2022-10-17T10:32:24;5.15;;;1.88;;
43891;SDS011;29555;45.350;5.578;2022-10-17T10:34:52;5.43;;;2.50;;
43891;SDS011;29555;45.350;5.578;2022-10-17T10:37:19;4.55;;;2.78;;
43891;SDS011;29555;45.350;5.578;2022-10-17T10:39:48;2.60;;;2.35;;
43891;SDS011;29555;45.350;5.578;2022-10-17T10:45:18;4.38;;;1.83;;
43891;SDS011;29555;45.350;5.578;2022-10-17T10:50:42;1.52;;;1.42;;
43891;SDS011;29555;45.350;5.578;2022-10-17T10:56:04;2.92;;;1.52;;
43891;SDS011;29555;45.350;5.578;2022-10-17T10:58:40;3.40;;;1.60;;
43891;SDS011;29555;45.350;5.578;2022-10-17T11:06:39;4.38;;;2.58;;
43891;SDS011;29555;45.350;5.578;2022-10-17T11:09:11;2.47;;;2.15;;
43891;SDS011;29555;45.350;5.578;2022-10-17T11:11:39;1.85;;;1.73;;
43891;SDS011;29555;45.350;5.578;2022-10-17T11:20:06;6.82;;;1.77;;
43891;SDS011;29555;45.350;5.578;2022-10-17T11:23:01;5.75;;;2.08;;
43891;SDS011;29555;45.350;5.578;2022-10-17T11:25:36;2.67;;;2.45;;
43891;SDS011;29555;45.350;5.578;2022-10-17T11:28:03;2.17;;;1.98;;
43891;SDS011;29555;45.350;5.578;2022-10-17T11:33:19;1.75;;;1.65;;
43891;SDS011;29555;45.350;5.578;2022-10-17T11:35:52;2.50;;;1.92;;
43891;SDS011;29555;45.350;5.578;2022-10-17T11:38:26;2.95;;;2.75;;
43891;SDS011;29555;45.350;5.578;2022-10-17T11:40:57;4.57;;;2.17;;
43891;SDS011;29555;45.350;5.578;2022-10-17T11:43:31;1.77;;;1.67;;
43891;SDS011;29555;45.350;5.578;2022-10-17T11:46:01;3.28;;;2.78;;
43891;SDS011;29555;45.350;5.578;2022-10-17T11:48:34;3.53;;;2.10;;
43891;SDS011;29555;45.350;5.578;2022-10-17T11:51:08;8.25;;;3.17;;
43891;SDS011;29555;45.350;5.578;2022-10-17T11:54:01;6.73;;;2.30;;
43891;SDS011;29555;45.350;5.578;2022-10-17T11:56:32;5.60;;;2.78;;
43891;SDS011;29555;45.350;5.578;2022-10-17T12:02:03;1.90;;;1.63;;
43891;SDS011;29555;45.350;5.578;2022-10-17T12:04:48;2.22;;;1.90;;
43891;SDS011;29555;45.350;5.578;2022-10-17T12:09:58;1.70;;;1.60;;
43891;SDS011;29555;45.350;5.578;2022-10-17T12:12:39;1.83;;;1.73;;
43891;SDS011;29555;45.350;5.578;2022-10-17T12:17:55;5.85;;;2.63;;
43891;SDS011;29555;45.350;5.578;2022-10-17T12:20:27;4.20;;;2.22;;
43891;SDS011;29555;45.350;5.578;2022-10-17T12:25:51;12.23;;;2.90;;
43891;SDS011;29555;45.350;5.578;2022-10-17T12:28:23;4.15;;;2.17;;
43891;SDS011;29555;45.350;5.578;2022-10-17T12:30:54;4.05;;;1.50;;
43891;SDS011;29555;45.350;5.578;2022-10-17T12:38:51;2.17;;;1.85;;
43891;SDS011;29555;45.350;5.578;2022-10-17T13:00:13;1.98;;;1.45;;
43891;SDS011;29555;45.350;5.578;2022-10-17T13:02:54;2.92;;;1.50;;
43891;SDS011;29555;45.350;5.578;2022-10-17T13:05:24;4.85;;;1.88;;
43891;SDS011;29555;45.350;5.578;2022-10-17T13:07:52;2.03;;;1.85;;
43891;SDS011;29555;45.350;5.578;2022-10-17T13:10:20;3.65;;;1.92;;
43891;SDS011;29555;45.350;5.578;2022-10-17T13:12:48;3.13;;;1.63;;
43891;SDS011;29555;45.350;5.578;2022-10-17T13:15:16;0.90;;;0.82;;
43891;SDS011;29555;45.350;5.578;2022-10-17T13:17:43;2.17;;;1.67;;
43891;SDS011;29555;45.350;5.578;2022-10-17T13:20:20;3.25;;;1.92;;
43891;SDS011;29555;45.350;5.578;2022-10-17T13:22:49;1.77;;;1.58;;
43891;SDS011;29555;45.350;5.578;2022-10-17T13:25:15;3.55;;;2.72;;
43891;SDS011;29555;45.350;5.578;2022-10-17T13:27:43;1.35;;;1.33;;
43891;SDS011;29555;45.350;5.578;2022-10-17T13:30:23;2.72;;;1.70;;
43891;SDS011;29555;45.350;5.578;2022-10-17T13:32:49;2.95;;;2.50;;
43891;SDS011;29555;45.350;5.578;2022-10-17T13:35:16;3.45;;;1.63;;
43891;SDS011;29555;45.350;5.578;2022-10-17T13:37:47;1.90;;;1.80;;
43891;SDS011;29555;45.350;5.578;2022-10-17T13:40:14;2.13;;;1.90;;
43891;SDS011;29555;45.350;5.578;2022-10-17T13:42:45;4.22;;;2.35;;
43891;SDS011;29555;45.350;5.578;2022-10-17T13:45:23;3.60;;;2.33;;
43891;SDS011;29555;45.350;5.578;2022-10-17T13:47:54;2.05;;;1.90;;
43891;SDS011;29555;45.350;5.578;2022-10-17T13:50:22;4.80;;;2.38;;
43891;SDS011;29555;45.350;5.578;2022-10-17T13:56:00;1.25;;;1.15;;
43891;SDS011;29555;45.350;5.578;2022-10-17T13:58:26;1.55;;;1.45;;
43891;SDS011;29555;45.350;5.578;2022-10-17T14:01:03;3.30;;;1.83;;
43891;SDS011;29555;45.350;5.578;2022-10-17T14:03:30;3.97;;;1.92;;
43891;SDS011;29555;45.350;5.578;2022-10-17T14:05:59;3.95;;;1.30;;
43891;SDS011;29555;45.350;5.578;2022-10-17T14:08:31;4.60;;;1.85;;
43891;SDS011;29555;45.350;5.578;2022-10-17T14:10:58;2.33;;;2.22;;
43891;SDS011;29555;45.350;5.578;2022-10-17T14:13:25;3.15;;;2.20;;
43891;SDS011;29555;45.350;5.578;2022-10-17T14:15:55;3.20;;;3.00;;
43891;SDS011;29555;45.350;5.578;2022-10-17T14:20:54;7.45;;;2.65;;
43891;SDS011;29555;45.350;5.578;2022-10-17T14:23:33;3.10;;;2.63;;
43891;SDS011;29555;45.350;5.578;2022-10-17T14:28:46;3.17;;;2.50;;
43891;SDS011;29555;45.350;5.578;2022-10-17T14:33:43;2.07;;;1.87;;
43891;SDS011;29555;45.350;5.578;2022-10-17T14:36:10;2.03;;;1.80;;
43891;SDS011;29555;45.350;5.578;2022-10-17T14:38:36;3.00;;;2.30;;
43891;SDS011;29555;45.350;5.578;2022-10-17T14:41:12;1.98;;;1.85;;
43891;SDS011;29555;45.350;5.578;2022-10-17T14:43:51;3.78;;;3.15;;
43891;SDS011;29555;45.350;5.578;2022-10-17T14:46:18;2.27;;;2.00;;
43891;SDS011;29555;45.350;5.578;2022-10-17T14:48:43;2.17;;;1.83;;
43891;SDS011;29555;45.350;5.578;2022-10-17T14:51:15;2.53;;;2.30;;
43891;SDS011;29555;45.350;5.578;2022-10-17T14:53:42;1.65;;;1.55;;
43891;SDS011;29555;45.350;5.578;2022-10-17T14:56:27;3.70;;;2.33;;
43891;SDS011;29555;45.350;5.578;2022-10-17T14:58:58;1.90;;;1.70;;
43891;SDS011;29555;45.350;5.578;2022-10-17T15:01:26;1.92;;;1.80;;
43891;SDS011;29555;45.350;5.578;2022-10-17T15:03:52;2.60;;;2.20;;
43891;SDS011;29555;45.350;5.578;2022-10-17T15:06:22;2.17;;;2.05;;
43891;SDS011;29555;45.350;5.578;2022-10-17T15:08:51;5.45;;;1.80;;
43891;SDS011;29555;45.350;5.578;2022-10-17T15:11:16;3.42;;;2.20;;
43891;SDS011;29555;45.350;5.578;2022-10-17T15:13:42;6.32;;;2.20;;
43891;SDS011;29555;45.350;5.578;2022-10-17T15:18:49;12.60;;;2.58;;
43891;SDS011;29555;45.350;5.578;2022-10-17T15:21:16;3.17;;;2.83;;
43891;SDS011;29555;45.350;5.578;2022-10-17T15:23:43;3.42;;;2.83;;
43891;SDS011;29555;45.350;5.578;2022-10-17T15:26:25;3.45;;;1.65;;
43891;SDS011;29555;45.350;5.578;2022-10-17T15:28:53;2.55;;;2.35;;
43891;SDS011;29555;45.350;5.578;2022-10-17T15:31:20;2.10;;;1.73;;
43891;SDS011;29555;45.350;5.578;2022-10-17T15:33:47;2.22;;;2.03;;
43891;SDS011;29555;45.350;5.578;2022-10-17T15:36:26;1.67;;;1.52;;
43891;SDS011;29555;45.350;5.578;2022-10-17T15:38:54;3.40;;;1.95;;
43891;SDS011;29555;45.350;5.578;2022-10-17T15:41:21;5.25;;;2.13;;
43891;SDS011;29555;45.350;5.578;2022-10-17T15:43:48;7.20;;;2.10;;
43891;SDS011;29555;45.350;5.578;2022-10-17T15:46:15;5.60;;;3.03;;
43891;SDS011;29555;45.350;5.578;2022-10-17T15:48:43;2.50;;;1.77;;
43891;SDS011;29555;45.350;5.578;2022-10-17T15:51:09;6.78;;;2.90;;
43891;SDS011;29555;45.350;5.578;2022-10-17T15:53:35;5.20;;;2.10;;
43891;SDS011;29555;45.350;5.578;2022-10-17T15:56:00;1.80;;;1.70;;
43891;SDS011;29555;45.350;5.578;2022-10-17T15:58:27;9.32;;;2.55;;
43891;SDS011;29555;45.350;5.578;2022-10-17T16:03:24;3.33;;;2.17;;
43891;SDS011;29555;45.350;5.578;2022-10-17T16:05:49;3.47;;;2.33;;
43891;SDS011;29555;45.350;5.578;2022-10-17T16:08:15;5.85;;;3.38;;
43891;SDS011;29555;45.350;5.578;2022-10-17T16:10:40;4.95;;;2.83;;
43891;SDS011;29555;45.350;5.578;2022-10-17T16:13:08;2.25;;;1.98;;
43891;SDS011;29555;45.350;5.578;2022-10-17T16:15:45;3.00;;;2.40;;
43891;SDS011;29555;45.350;5.578;2022-10-17T16:18:11;5.68;;;2.45;;
43891;SDS011;29555;45.350;5.578;2022-10-17T16:20:37;5.40;;;2.83;;
43891;SDS011;29555;45.350;5.578;2022-10-17T16:23:03;9.32;;;2.85;;
43891;SDS011;29555;45.350;5.578;2022-10-17T16:25:30;3.42;;;2.45;;
43891;SDS011;29555;45.350;5.578;2022-10-17T16:27:57;5.80;;;2.90;;
43891;SDS011;29555;45.350;5.578;2022-10-17T16:30:25;3.97;;;2.90;;
43891;SDS011;29555;45.350;5.578;2022-10-17T16:32:52;5.43;;;2.55;;
43891;SDS011;29555;45.350;5.578;2022-10-17T16:35:19;2.90;;;1.80;;
43891;SDS011;29555;45.350;5.578;2022-10-17T16:37:47;8.63;;;2.88;;
43891;SDS011;29555;45.350;5.578;2022-10-17T16:40:13;8.95;;;3.03;;
43891;SDS011;29555;45.350;5.578;2022-10-17T16:42:38;2.20;;;2.08;;
43891;SDS011;29555;45.350;5.578;2022-10-17T16:45:04;6.90;;;3.28;;
43891;SDS011;29555;45.350;5.578;2022-10-17T16:47:30;6.38;;;2.88;;
43891;SDS011;29555;45.350;5.578;2022-10-17T16:49:55;9.68;;;2.95;;
43891;SDS011;29555;45.350;5.578;2022-10-17T16:52:21;6.28;;;3.85;;
43891;SDS011;29555;45.350;5.578;2022-10-17T16:54:46;3.53;;;2.30;;
43891;SDS011;29555;45.350;5.578;2022-10-17T16:57:11;5.85;;;2.97;;
43891;SDS011;29555;45.350;5.578;2022-10-17T16:59:37;7.50;;;3.35;;
43891;SDS011;29555;45.350;5.578;2022-10-17T17:02:02;3.30;;;2.15;;
43891;SDS011;29555;45.350;5.578;2022-10-17T17:04:28;2.45;;;2.05;;
43891;SDS011;29555;45.350;5.578;2022-10-17T17:06:54;2.20;;;2.00;;
43891;SDS011;29555;45.350;5.578;2022-10-17T17:09:19;2.55;;;2.35;;